Terminal Aerodrome Forecast
Issued by NWS

Home | Current Version | Previous Version | Text Only | Print | Product List | Glossary On
Versions: 1 2 3 4 5 6 7 8 9 10 11 12 13 14 15 16 17 18 19 20
000
FTUS46 KLOX 131700
TAFOXR
TAF
KOXR 131724Z 1318/1418 25006KT P6SM SKC
     FM132000 26010KT P6SM SKC
     FM140300 VRB03KT P6SM SCT150
     FM141000 VRB03KT P6SM BKN120=

USA.gov is the U.S. government's official web portal to all federal, state and local government web resources and services.